sensor_id;sensor_type;location;lat;lon;timestamp;pressure;altitude;pressure_sealevel;temperature;humidity
56402;BME280;42299;35.160;26.100;2024-03-23T00:57:21;101172.28;;;10.78;100.00
56402;BME280;42299;35.160;26.100;2024-03-23T01:02:43;101176.06;;;10.89;100.00
56402;BME280;42299;35.160;26.100;2024-03-23T01:08:06;101168.44;;;10.64;100.00
56402;BME280;42299;35.160;26.100;2024-03-23T01:13:30;101174.84;;;10.34;100.00
56402;BME280;42299;35.160;26.100;2024-03-23T01:18:53;101168.00;;;10.43;100.00
56402;BME280;42299;35.160;26.100;2024-03-23T01:24:15;101160.75;;;10.34;100.00
56402;BME280;42299;35.160;26.100;2024-03-23T01:29:39;101155.59;;;10.03;100.00
56402;BME280;42299;35.160;26.100;2024-03-23T01:35:02;101156.38;;;10.34;100.00
56402;BME280;42299;35.160;26.100;2024-03-23T01:40:24;101148.50;;;10.36;100.00
56402;BME280;42299;35.160;26.100;2024-03-23T01:45:49;101143.00;;;9.92;100.00
56402;BME280;42299;35.160;26.100;2024-03-23T01:51:14;101137.09;;;10.01;100.00
56402;BME280;42299;35.160;26.100;2024-03-23T01:56:37;101142.75;;;9.82;100.00
56402;BME280;42299;35.160;26.100;2024-03-23T02:02:01;101145.69;;;9.58;100.00
56402;BME280;42299;35.160;26.100;2024-03-23T02:07:24;101144.66;;;9.51;100.00
56402;BME280;42299;35.160;26.100;2024-03-23T02:12:47;101139.88;;;9.71;100.00
56402;BME280;42299;35.160;26.100;2024-03-23T02:18:11;101150.56;;;9.43;100.00
56402;BME280;42299;35.160;26.100;2024-03-23T02:23:35;101140.97;;;9.46;100.00
56402;BME280;42299;35.160;26.100;2024-03-23T02:28:57;101147.09;;;9.45;100.00
56402;BME280;42299;35.160;26.100;2024-03-23T02:34:20;101146.59;;;9.27;100.00
56402;BME280;42299;35.160;26.100;2024-03-23T02:39:44;101149.19;;;9.24;100.00
56402;BME280;42299;35.160;26.100;2024-03-23T02:45:07;101144.63;;;9.18;100.00
56402;BME280;42299;35.160;26.100;2024-03-23T02:50:29;101140.44;;;9.27;100.00
56402;BME280;42299;35.160;26.100;2024-03-23T02:55:53;101150.03;;;9.23;100.00
56402;BME280;42299;35.160;26.100;2024-03-23T03:01:16;101141.66;;;9.39;100.00
56402;BME280;42299;35.160;26.100;2024-03-23T03:06:38;101143.16;;;9.63;100.00
56402;BME280;42299;35.160;26.100;2024-03-23T03:12:03;101145.72;;;9.27;100.00
56402;BME280;42299;35.160;26.100;2024-03-23T03:17:26;101144.91;;;9.29;100.00
56402;BME280;42299;35.160;26.100;2024-03-23T03:22:49;101147.13;;;9.14;100.00
56402;BME280;42299;35.160;26.100;2024-03-23T03:28:12;101144.59;;;8.86;100.00
56402;BME280;42299;35.160;26.100;2024-03-23T03:33:35;101139.28;;;9.15;100.00
56402;BME280;42299;35.160;26.100;2024-03-23T03:38:57;101146.34;;;9.16;100.00
56402;BME280;42299;35.160;26.100;2024-03-23T03:44:21;101137.91;;;9.30;100.00
56402;BME280;42299;35.160;26.100;2024-03-23T03:49:44;101145.94;;;9.34;100.00
56402;BME280;42299;35.160;26.100;2024-03-23T03:55:12;101144.38;;;9.09;100.00
56402;BME280;42299;35.160;26.100;2024-03-23T04:00:37;101158.09;;;8.98;100.00
56402;BME280;42299;35.160;26.100;2024-03-23T04:06:00;101160.03;;;9.36;100.00
56402;BME280;42299;35.160;26.100;2024-03-23T04:11:22;101152.34;;;9.45;100.00
56402;BME280;42299;35.160;26.100;2024-03-23T04:16:46;101160.03;;;9.69;100.00
56402;BME280;42299;35.160;26.100;2024-03-23T04:22:09;101154.22;;;9.82;100.00
56402;BME280;42299;35.160;26.100;2024-03-23T04:27:31;101158.53;;;9.80;100.00
56402;BME280;42299;35.160;26.100;2024-03-23T04:32:55;101165.78;;;9.54;100.00
56402;BME280;42299;35.160;26.100;2024-03-23T04:38:19;101168.88;;;9.73;100.00
56402;BME280;42299;35.160;26.100;2024-03-23T04:43:41;101175.91;;;10.44;100.00
56402;BME280;42299;35.160;26.100;2024-03-23T04:49:05;101159.66;;;11.05;100.00
56402;BME280;42299;35.160;26.100;2024-03-23T04:54:28;101169.38;;;12.03;100.00
56402;BME280;42299;35.160;26.100;2024-03-23T04:59:51;101171.53;;;12.28;100.00
56402;BME280;42299;35.160;26.100;2024-03-23T05:05:15;101175.59;;;12.63;100.00
56402;BME280;42299;35.160;26.100;2024-03-23T05:10:38;101171.47;;;13.61;100.00
56402;BME280;42299;35.160;26.100;2024-03-23T05:16:00;101175.97;;;14.83;100.00
56402;BME280;42299;35.160;26.100;2024-03-23T05:21:24;101181.59;;;16.12;100.00
56402;BME280;42299;35.160;26.100;2024-03-23T05:26:46;101177.13;;;15.76;100.00
56402;BME280;42299;35.160;26.100;2024-03-23T05:32:09;101185.97;;;15.49;100.00
56402;BME280;42299;35.160;26.100;2024-03-23T05:37:33;101186.03;;;15.84;100.00
56402;BME280;42299;35.160;26.100;2024-03-23T05:42:56;101184.25;;;16.38;98.86
56402;BME280;42299;35.160;26.100;2024-03-23T05:48:18;101176.19;;;15.48;100.00
56402;BME280;42299;35.160;26.100;2024-03-23T05:53:42;101175.34;;;15.60;100.00
56402;BME280;42299;35.160;26.100;2024-03-23T05:59:05;101180.94;;;18.87;64.65
56402;BME280;42299;35.160;26.100;2024-03-23T06:04:28;101166.44;;;21.95;48.09
56402;BME280;42299;35.160;26.100;2024-03-23T06:09:52;101168.09;;;23.89;41.54
56402;BME280;42299;35.160;26.100;2024-03-23T06:15:14;101181.00;;;25.08;38.24
56402;BME280;42299;35.160;26.100;2024-03-23T06:20:37;101168.09;;;26.28;34.40
56402;BME280;42299;35.160;26.100;2024-03-23T06:26:01;101173.56;;;24.40;36.71
56402;BME280;42299;35.160;26.100;2024-03-23T06:31:24;101172.06;;;25.98;34.08
56402;BME280;42299;35.160;26.100;2024-03-23T06:36:47;101166.38;;;24.90;33.18
56402;BME280;42299;35.160;26.100;2024-03-23T06:42:11;101182.88;;;23.17;36.19
56402;BME280;42299;35.160;26.100;2024-03-23T06:47:34;101173.72;;;21.90;38.16
56402;BME280;42299;35.160;26.100;2024-03-23T06:52:56;101183.09;;;24.50;34.58
56402;BME280;42299;35.160;26.100;2024-03-23T06:58:21;101175.75;;;26.39;31.78
56402;BME280;42299;35.160;26.100;2024-03-23T07:03:44;101182.72;;;27.05;30.23
56402;BME280;42299;35.160;26.100;2024-03-23T07:09:06;101194.66;;;27.21;30.24
56402;BME280;42299;35.160;26.100;2024-03-23T07:14:31;101201.81;;;27.04;30.12
56402;BME280;42299;35.160;26.100;2024-03-23T07:19:53;101194.16;;;28.95;27.62
56402;BME280;42299;35.160;26.100;2024-03-23T07:25:16;101202.13;;;27.91;28.24
56402;BME280;42299;35.160;26.100;2024-03-23T07:30:40;101203.94;;;28.09;27.85
56402;BME280;42299;35.160;26.100;2024-03-23T07:36:04;101204.81;;;27.55;28.90
56402;BME280;42299;35.160;26.100;2024-03-23T07:41:26;101208.28;;;28.67;26.91
56402;BME280;42299;35.160;26.100;2024-03-23T07:46:51;101202.44;;;26.88;29.28
56402;BME280;42299;35.160;26.100;2024-03-23T07:52:13;101213.66;;;26.17;30.00
56402;BME280;42299;35.160;26.100;2024-03-23T07:57:36;101207.25;;;27.97;28.52
56402;BME280;42299;35.160;26.100;2024-03-23T08:03:00;101209.28;;;30.27;26.09
56402;BME280;42299;35.160;26.100;2024-03-23T08:08:22;101221.06;;;30.28;25.43
56402;BME280;42299;35.160;26.100;2024-03-23T08:13:45;101219.38;;;29.14;26.24
56402;BME280;42299;35.160;26.100;2024-03-23T08:19:09;101221.09;;;29.15;26.13
56402;BME280;42299;35.160;26.100;2024-03-23T08:24:32;101225.31;;;29.70;25.55
56402;BME280;42299;35.160;26.100;2024-03-23T08:29:54;101215.47;;;30.91;24.70
56402;BME280;42299;35.160;26.100;2024-03-23T08:35:18;101218.88;;;31.24;23.34
56402;BME280;42299;35.160;26.100;2024-03-23T08:40:41;101217.41;;;31.61;23.35
56402;BME280;42299;35.160;26.100;2024-03-23T08:46:04;101220.53;;;30.82;23.95
56402;BME280;42299;35.160;26.100;2024-03-23T08:51:28;101219.88;;;29.86;25.09
56402;BME280;42299;35.160;26.100;2024-03-23T08:56:51;101213.34;;;29.89;25.29
56402;BME280;42299;35.160;26.100;2024-03-23T09:02:13;101216.16;;;30.34;24.53
56402;BME280;42299;35.160;26.100;2024-03-23T09:07:38;101198.84;;;29.88;24.99
56402;BME280;42299;35.160;26.100;2024-03-23T09:13:00;101198.59;;;29.61;24.91
56402;BME280;42299;35.160;26.100;2024-03-23T09:18:23;101199.94;;;29.04;25.85
56402;BME280;42299;35.160;26.100;2024-03-23T09:23:48;101193.13;;;28.80;26.39
56402;BME280;42299;35.160;26.100;2024-03-23T09:29:11;101197.53;;;29.48;25.27
56402;BME280;42299;35.160;26.100;2024-03-23T09:34:34;101190.44;;;29.77;25.05
56402;BME280;42299;35.160;26.100;2024-03-23T09:39:59;101182.69;;;30.17;24.68
56402;BME280;42299;35.160;26.100;2024-03-23T09:45:23;101178.81;;;31.10;24.20
56402;BME280;42299;35.160;26.100;2024-03-23T09:50:49;101167.94;;;31.51;23.89
56402;BME280;42299;35.160;26.100;2024-03-23T09:56:14;101169.88;;;29.87;24.67
56402;BME280;42299;35.160;26.100;2024-03-23T10:01:38;101169.94;;;30.63;23.91
56402;BME280;42299;35.160;26.100;2024-03-23T10:07:11;101165.41;;;31.48;23.29
56402;BME280;42299;35.160;26.100;2024-03-23T10:12:35;101159.84;;;31.64;23.52
56402;BME280;42299;35.160;26.100;2024-03-23T10:17:58;101155.47;;;31.47;23.91
56402;BME280;42299;35.160;26.100;2024-03-23T10:23:40;101152.09;;;31.85;23.12
56402;BME280;42299;35.160;26.100;2024-03-23T10:29:05;101138.13;;;30.77;23.56
56402;BME280;42299;35.160;26.100;2024-03-23T10:34:31;101145.06;;;30.53;24.71
56402;BME280;42299;35.160;26.100;2024-03-23T10:39:54;101135.69;;;30.43;24.32
56402;BME280;42299;35.160;26.100;2024-03-23T10:45:19;101131.22;;;28.85;25.58
56402;BME280;42299;35.160;26.100;2024-03-23T10:50:42;101131.31;;;28.32;26.52
56402;BME280;42299;35.160;26.100;2024-03-23T10:56:06;101126.59;;;28.18;27.08
56402;BME280;42299;35.160;26.100;2024-03-23T11:01:31;101118.06;;;27.54;27.39
56402;BME280;42299;35.160;26.100;2024-03-23T11:06:54;101116.38;;;25.92;29.83
56402;BME280;42299;35.160;26.100;2024-03-23T11:12:30;101116.25;;;25.73;30.95
56402;BME280;42299;35.160;26.100;2024-03-23T11:18:06;101118.63;;;25.14;30.97
56402;BME280;42299;35.160;26.100;2024-03-23T11:23:30;101103.03;;;24.74;31.75
56402;BME280;42299;35.160;26.100;2024-03-23T11:29:09;101104.53;;;24.33;32.75
56402;BME280;42299;35.160;26.100;2024-03-23T11:34:34;101101.19;;;24.00;33.81
56402;BME280;42299;35.160;26.100;2024-03-23T11:39:57;101098.78;;;23.65;34.07
56402;BME280;42299;35.160;26.100;2024-03-23T11:45:27;101090.47;;;23.15;34.77
56402;BME280;42299;35.160;26.100;2024-03-23T11:50:55;101085.03;;;22.87;35.11
56402;BME280;42299;35.160;26.100;2024-03-23T11:56:18;101087.78;;;23.43;34.46
56402;BME280;42299;35.160;26.100;2024-03-23T12:01:41;101083.19;;;23.74;33.38
56402;BME280;42299;35.160;26.100;2024-03-23T12:07:14;101085.47;;;23.87;33.45
56402;BME280;42299;35.160;26.100;2024-03-23T12:12:36;101081.38;;;23.75;33.42
56402;BME280;42299;35.160;26.100;2024-03-23T12:18:09;101074.66;;;23.32;33.50
56402;BME280;42299;35.160;26.100;2024-03-23T12:23:34;101085.59;;;22.98;34.43
56402;BME280;42299;35.160;26.100;2024-03-23T12:28:57;101080.47;;;23.19;33.87
56402;BME280;42299;35.160;26.100;2024-03-23T12:34:20;101075.81;;;23.24;34.33
56402;BME280;42299;35.160;26.100;2024-03-23T12:39:45;101069.28;;;23.31;33.68
56402;BME280;42299;35.160;26.100;2024-03-23T12:45:08;101076.00;;;22.90;33.92
56402;BME280;42299;35.160;26.100;2024-03-23T12:50:30;101057.72;;;22.70;34.47
56402;BME280;42299;35.160;26.100;2024-03-23T12:55:54;101062.06;;;22.43;35.21
56402;BME280;42299;35.160;26.100;2024-03-23T13:01:18;101048.91;;;22.00;35.65
56402;BME280;42299;35.160;26.100;2024-03-23T13:06:41;101046.75;;;21.45;36.95
56402;BME280;42299;35.160;26.100;2024-03-23T13:12:06;101042.03;;;21.18;37.63
56402;BME280;42299;35.160;26.100;2024-03-23T13:17:28;101047.19;;;20.87;38.03
56402;BME280;42299;35.160;26.100;2024-03-23T13:22:51;101041.41;;;20.63;38.41
56402;BME280;42299;35.160;26.100;2024-03-23T13:28:15;101049.88;;;20.44;38.49
56402;BME280;42299;35.160;26.100;2024-03-23T13:33:38;101047.72;;;19.69;39.43
56402;BME280;42299;35.160;26.100;2024-03-23T13:39:03;101042.09;;;19.29;39.48
56402;BME280;42299;35.160;26.100;2024-03-23T13:44:33;101033.19;;;19.27;39.56
56402;BME280;42299;35.160;26.100;2024-03-23T13:49:57;101040.81;;;19.53;39.51
56402;BME280;42299;35.160;26.100;2024-03-23T13:55:20;101046.63;;;19.79;39.97
56402;BME280;42299;35.160;26.100;2024-03-23T14:00:44;101039.16;;;19.96;40.15
56402;BME280;42299;35.160;26.100;2024-03-23T14:06:07;101027.75;;;20.31;39.30
56402;BME280;42299;35.160;26.100;2024-03-23T14:11:30;101025.19;;;20.26;39.81
56402;BME280;42299;35.160;26.100;2024-03-23T14:16:54;101030.16;;;20.00;40.34
56402;BME280;42299;35.160;26.100;2024-03-23T14:22:16;101028.59;;;19.88;40.70
56402;BME280;42299;35.160;26.100;2024-03-23T14:27:44;101035.34;;;19.60;41.28
56402;BME280;42299;35.160;26.100;2024-03-23T14:33:08;101038.94;;;19.58;41.76
56402;BME280;42299;35.160;26.100;2024-03-23T14:38:30;101037.00;;;19.67;42.13
56402;BME280;42299;35.160;26.100;2024-03-23T14:43:53;101040.69;;;19.62;42.32
56402;BME280;42299;35.160;26.100;2024-03-23T14:49:17;101043.66;;;19.42;43.10
56402;BME280;42299;35.160;26.100;2024-03-23T14:54:39;101043.91;;;19.27;43.43
56402;BME280;42299;35.160;26.100;2024-03-23T15:00:02;101045.88;;;19.13;43.46
56402;BME280;42299;35.160;26.100;2024-03-23T15:05:27;101041.59;;;19.02;43.95
56402;BME280;42299;35.160;26.100;2024-03-23T15:10:50;101037.34;;;18.88;44.26
56402;BME280;42299;35.160;26.100;2024-03-23T15:16:16;101040.28;;;18.68;45.01
56402;BME280;42299;35.160;26.100;2024-03-23T15:21:42;101038.31;;;18.81;44.80
56402;BME280;42299;35.160;26.100;2024-03-23T15:27:04;101037.75;;;18.53;45.14
56402;BME280;42299;35.160;26.100;2024-03-23T15:32:32;101038.94;;;18.29;46.15
56402;BME280;42299;35.160;26.100;2024-03-23T15:37:56;101037.59;;;17.91;47.37
56402;BME280;42299;35.160;26.100;2024-03-23T15:43:19;101039.63;;;17.61;48.61
56402;BME280;42299;35.160;26.100;2024-03-23T15:48:42;101035.31;;;17.41;49.82
56402;BME280;42299;35.160;26.100;2024-03-23T15:54:09;101035.38;;;17.35;51.14
56402;BME280;42299;35.160;26.100;2024-03-23T15:59:31;101031.03;;;17.22;52.79
56402;BME280;42299;35.160;26.100;2024-03-23T16:04:54;101029.47;;;16.92;55.00
56402;BME280;42299;35.160;26.100;2024-03-23T16:10:20;101027.81;;;16.73;56.78
56402;BME280;42299;35.160;26.100;2024-03-23T16:15:43;101025.16;;;16.59;58.58
56402;BME280;42299;35.160;26.100;2024-03-23T16:21:06;101029.66;;;16.45;59.11
56402;BME280;42299;35.160;26.100;2024-03-23T16:26:30;101028.03;;;16.08;61.41
56402;BME280;42299;35.160;26.100;2024-03-23T16:31:53;101028.97;;;15.69;65.39
56402;BME280;42299;35.160;26.100;2024-03-23T16:37:16;101036.03;;;15.45;67.77
56402;BME280;42299;35.160;26.100;2024-03-23T16:42:40;101034.25;;;15.17;70.49
56402;BME280;42299;35.160;26.100;2024-03-23T16:48:02;101033.34;;;14.89;72.84
56402;BME280;42299;35.160;26.100;2024-03-23T16:53:25;101042.13;;;14.68;74.21
56402;BME280;42299;35.160;26.100;2024-03-23T16:58:49;101045.59;;;14.54;75.91
56402;BME280;42299;35.160;26.100;2024-03-23T17:04:12;101045.56;;;14.42;77.82
56402;BME280;42299;35.160;26.100;2024-03-23T17:09:46;101041.03;;;14.31;78.94
56402;BME280;42299;35.160;26.100;2024-03-23T17:15:12;101044.56;;;14.27;80.17
56402;BME280;42299;35.160;26.100;2024-03-23T17:20:35;101048.88;;;14.03;85.20
56402;BME280;42299;35.160;26.100;2024-03-23T17:25:58;101055.81;;;13.87;88.68
56402;BME280;42299;35.160;26.100;2024-03-23T17:31:23;101057.50;;;13.71;92.18
56402;BME280;42299;35.160;26.100;2024-03-23T17:36:48;101062.59;;;13.47;94.95
56402;BME280;42299;35.160;26.100;2024-03-23T17:42:10;101066.03;;;13.35;97.18
56402;BME280;42299;35.160;26.100;2024-03-23T17:47:39;101066.72;;;13.16;99.40
56402;BME280;42299;35.160;26.100;2024-03-23T17:53:02;101068.56;;;13.23;99.10
56402;BME280;42299;35.160;26.100;2024-03-23T17:58:24;101073.09;;;13.32;97.41
56402;BME280;42299;35.160;26.100;2024-03-23T18:03:52;101085.94;;;12.97;100.00
56402;BME280;42299;35.160;26.100;2024-03-23T18:09:15;101083.28;;;12.97;100.00
56402;BME280;42299;35.160;26.100;2024-03-23T18:14:38;101084.19;;;12.99;100.00
56402;BME280;42299;35.160;26.100;2024-03-23T18:20:02;101091.19;;;12.94;100.00
56402;BME280;42299;35.160;26.100;2024-03-23T18:25:25;101097.28;;;12.85;100.00
56402;BME280;42299;35.160;26.100;2024-03-23T18:30:56;101108.31;;;12.49;100.00
56402;BME280;42299;35.160;26.100;2024-03-23T18:36:20;101105.50;;;12.37;100.00
56402;BME280;42299;35.160;26.100;2024-03-23T18:41:42;101112.25;;;12.17;100.00
56402;BME280;42299;35.160;26.100;2024-03-23T18:47:05;101103.41;;;12.13;100.00
56402;BME280;42299;35.160;26.100;2024-03-23T18:52:29;101108.94;;;12.31;100.00
56402;BME280;42299;35.160;26.100;2024-03-23T18:57:52;101113.53;;;12.45;100.00
56402;BME280;42299;35.160;26.100;2024-03-23T19:03:14;101119.38;;;12.21;100.00
56402;BME280;42299;35.160;26.100;2024-03-23T19:08:39;101113.25;;;12.23;100.00
56402;BME280;42299;35.160;26.100;2024-03-23T19:14:02;101106.50;;;12.48;100.00
56402;BME280;42299;35.160;26.100;2024-03-23T19:19:24;101106.72;;;12.02;100.00
56402;BME280;42299;35.160;26.100;2024-03-23T19:24:49;101102.72;;;11.72;100.00
56402;BME280;42299;35.160;26.100;2024-03-23T19:30:11;101105.69;;;11.39;100.00
56402;BME280;42299;35.160;26.100;2024-03-23T19:35:34;101104.78;;;11.39;100.00
56402;BME280;42299;35.160;26.100;2024-03-23T19:40:58;101110.06;;;11.39;100.00
56402;BME280;42299;35.160;26.100;2024-03-23T19:46:21;101110.75;;;11.27;100.00
56402;BME280;42299;35.160;26.100;2024-03-23T19:51:45;101118.22;;;11.04;100.00
56402;BME280;42299;35.160;26.100;2024-03-23T19:57:09;101113.31;;;10.79;100.00
56402;BME280;42299;35.160;26.100;2024-03-23T20:02:32;101116.78;;;10.75;100.00
56402;BME280;42299;35.160;26.100;2024-03-23T20:07:55;101117.50;;;10.68;100.00
56402;BME280;42299;35.160;26.100;2024-03-23T20:13:19;101114.44;;;10.48;100.00
56402;BME280;42299;35.160;26.100;2024-03-23T20:18:42;101119.09;;;10.60;100.00
56402;BME280;42299;35.160;26.100;2024-03-23T20:24:05;101118.53;;;10.74;100.00
56402;BME280;42299;35.160;26.100;2024-03-23T20:29:32;101117.72;;;10.36;100.00
56402;BME280;42299;35.160;26.100;2024-03-23T20:34:55;101115.53;;;10.17;100.00
56402;BME280;42299;35.160;26.100;2024-03-23T20:40:17;101118.34;;;10.26;100.00
56402;BME280;42299;35.160;26.100;2024-03-23T20:45:41;101120.94;;;10.23;100.00
56402;BME280;42299;35.160;26.100;2024-03-23T20:51:04;101122.84;;;9.94;100.00
56402;BME280;42299;35.160;26.100;2024-03-23T20:56:28;101114.00;;;9.91;100.00
56402;BME280;42299;35.160;26.100;2024-03-23T21:01:52;101114.94;;;9.94;100.00
56402;BME280;42299;35.160;26.100;2024-03-23T21:07:14;101107.78;;;9.89;100.00
56402;BME280;42299;35.160;26.100;2024-03-23T21:12:36;101116.56;;;10.25;100.00
56402;BME280;42299;35.160;26.100;2024-03-23T21:18:00;101113.66;;;10.15;100.00
56402;BME280;42299;35.160;26.100;2024-03-23T21:23:23;101116.25;;;10.51;100.00
56402;BME280;42299;35.160;26.100;2024-03-23T21:28:50;101113.94;;;10.25;100.00
56402;BME280;42299;35.160;26.100;2024-03-23T21:34:14;101103.88;;;10.48;100.00
56402;BME280;42299;35.160;26.100;2024-03-23T21:39:37;101117.69;;;10.35;100.00
56402;BME280;42299;35.160;26.100;2024-03-23T21:44:59;101113.00;;;10.22;100.00
56402;BME280;42299;35.160;26.100;2024-03-23T21:50:23;101111.84;;;10.12;100.00
56402;BME280;42299;35.160;26.100;2024-03-23T21:55:49;101118.72;;;10.06;100.00
56402;BME280;42299;35.160;26.100;2024-03-23T22:01:12;101116.06;;;10.06;100.00
56402;BME280;42299;35.160;26.100;2024-03-23T22:06:39;101108.25;;;10.09;100.00
56402;BME280;42299;35.160;26.100;2024-03-23T22:12:01;101111.06;;;10.16;100.00
56402;BME280;42299;35.160;26.100;2024-03-23T22:17:24;101117.81;;;10.05;100.00
56402;BME280;42299;35.160;26.100;2024-03-23T22:22:48;101114.41;;;10.09;100.00
56402;BME280;42299;35.160;26.100;2024-03-23T22:28:11;101105.19;;;9.90;100.00
56402;BME280;42299;35.160;26.100;2024-03-23T22:33:34;101100.44;;;9.76;100.00
56402;BME280;42299;35.160;26.100;2024-03-23T22:38:58;101100.69;;;9.52;100.00
56402;BME280;42299;35.160;26.100;2024-03-23T22:44:21;101101.97;;;9.32;100.00
56402;BME280;42299;35.160;26.100;2024-03-23T22:49:43;101093.97;;;9.29;100.00
56402;BME280;42299;35.160;26.100;2024-03-23T22:55:08;101091.53;;;9.36;100.00
56402;BME280;42299;35.160;26.100;2024-03-23T23:00:31;101090.50;;;9.30;100.00
56402;BME280;42299;35.160;26.100;2024-03-23T23:05:58;101089.50;;;9.26;100.00
56402;BME280;42299;35.160;26.100;2024-03-23T23:11:23;101088.56;;;9.23;100.00
56402;BME280;42299;35.160;26.100;2024-03-23T23:16:45;101087.75;;;9.25;100.00
56402;BME280;42299;35.160;26.100;2024-03-23T23:22:08;101083.13;;;9.16;100.00
56402;BME280;42299;35.160;26.100;2024-03-23T23:27:32;101081.22;;;9.11;100.00
56402;BME280;42299;35.160;26.100;2024-03-23T23:32:54;101076.34;;;9.26;100.00
56402;BME280;42299;35.160;26.100;2024-03-23T23:38:18;101073.31;;;9.11;100.00
56402;BME280;42299;35.160;26.100;2024-03-23T23:43:42;101082.06;;;9.10;100.00
56402;BME280;42299;35.160;26.100;2024-03-23T23:49:14;101073.31;;;8.78;100.00
56402;BME280;42299;35.160;26.100;2024-03-23T23:54:37;101065.25;;;8.72;100.00
